createdAt,value
2023-05-20T00:00:05.130Z,0.00
2023-05-20T00:01:05.108Z,0.00
2023-05-20T00:02:05.106Z,0.00
2023-05-20T00:03:05.212Z,0.00
2023-05-20T00:04:05.213Z,0.00
2023-05-20T00:05:05.157Z,0.00
2023-05-20T00:06:05.035Z,0.00
2023-05-20T00:07:05.041Z,0.00
2023-05-20T00:08:05.020Z,0.00
2023-05-20T00:09:05.009Z,0.00
2023-05-20T00:10:04.981Z,0.00
2023-05-20T00:11:04.977Z,0.00
2023-05-20T00:12:04.961Z,0.00
2023-05-20T00:13:04.973Z,0.00
2023-05-20T00:14:04.944Z,0.00
2023-05-20T00:15:04.934Z,0.00
2023-05-20T00:16:04.935Z,0.00
2023-05-20T00:17:04.929Z,0.00
2023-05-20T00:18:04.924Z,0.00
2023-05-20T00:19:04.906Z,0.00
2023-05-20T00:20:04.875Z,0.00
2023-05-20T00:21:04.841Z,0.00
2023-05-20T00:22:04.838Z,0.00
2023-05-20T00:23:04.810Z,0.00
2023-05-20T00:24:04.820Z,0.00
2023-05-20T00:25:04.865Z,0.00
2023-05-20T00:26:04.775Z,0.00
2023-05-20T00:27:04.772Z,0.00
2023-05-20T00:28:04.741Z,0.00
2023-05-20T00:29:04.733Z,0.00
2023-05-20T00:30:04.712Z,0.00
2023-05-20T00:31:04.744Z,0.00
2023-05-20T00:32:04.789Z,0.00
2023-05-20T00:33:04.708Z,0.00
2023-05-20T00:34:04.679Z,0.00
2023-05-20T00:35:04.660Z,0.00
2023-05-20T00:36:04.640Z,0.00
2023-05-20T00:37:04.630Z,0.00
2023-05-20T00:38:04.616Z,0.00
2023-05-20T00:39:04.621Z,0.00
2023-05-20T00:40:04.573Z,0.00
2023-05-20T00:41:04.575Z,0.00
2023-05-20T00:42:04.596Z,0.00
2023-05-20T00:43:04.539Z,0.00
2023-05-20T00:44:04.542Z,0.00
2023-05-20T00:45:04.581Z,0.00
2023-05-20T00:46:04.538Z,0.00
2023-05-20T00:47:04.482Z,0.00
2023-05-20T00:48:04.533Z,0.00
2023-05-20T00:49:04.478Z,0.00
2023-05-20T00:50:04.467Z,0.00
2023-05-20T00:51:04.439Z,0.00
2023-05-20T00:52:04.450Z,0.00
2023-05-20T00:53:04.447Z,0.00
2023-05-20T00:54:04.420Z,0.00
2023-05-20T00:55:04.386Z,0.00
2023-05-20T00:56:04.374Z,0.00
2023-05-20T00:57:04.353Z,0.00
2023-05-20T00:58:04.345Z,0.00
2023-05-20T00:59:04.361Z,0.00
2023-05-20T01:00:04.355Z,0.00
2023-05-20T01:01:04.365Z,0.00
2023-05-20T01:02:04.311Z,0.00
2023-05-20T01:03:04.385Z,0.00
2023-05-20T01:04:04.319Z,0.00
2023-05-20T01:05:04.273Z,0.00
2023-05-20T01:06:04.244Z,0.00
2023-05-20T01:07:04.233Z,0.00
2023-05-20T01:08:04.222Z,0.00
2023-05-20T01:09:04.221Z,0.00
2023-05-20T01:10:04.198Z,0.00
2023-05-20T01:11:04.186Z,0.00
2023-05-20T01:12:04.234Z,0.00
2023-05-20T01:13:04.168Z,0.00
2023-05-20T01:14:04.143Z,0.00
2023-05-20T01:15:04.153Z,0.00
2023-05-20T01:16:04.151Z,0.00
2023-05-20T01:17:04.143Z,0.00
2023-05-20T01:18:04.216Z,0.00
2023-05-20T01:19:04.169Z,0.00
2023-05-20T01:20:04.097Z,0.00
2023-05-20T01:21:04.135Z,0.00
2023-05-20T01:22:04.031Z,0.00
2023-05-20T01:23:04.115Z,0.00
2023-05-20T01:24:04.004Z,0.00
2023-05-20T01:25:03.996Z,0.00
2023-05-20T01:26:03.998Z,0.00
2023-05-20T01:27:03.992Z,0.00
2023-05-20T01:28:03.957Z,0.00
2023-05-20T01:29:03.952Z,0.00
2023-05-20T01:30:03.922Z,0.00
2023-05-20T01:31:03.957Z,0.00
2023-05-20T01:32:03.910Z,0.00
2023-05-20T01:33:03.946Z,0.00
2023-05-20T01:34:03.894Z,0.00
2023-05-20T01:35:03.882Z,0.00
2023-05-20T01:36:03.872Z,0.00
2023-05-20T01:37:03.861Z,0.00
2023-05-20T01:38:03.829Z,0.00
2023-05-20T01:39:03.829Z,0.00
2023-05-20T01:40:03.856Z,0.00
2023-05-20T01:41:03.799Z,0.00
2023-05-20T01:42:03.773Z,0.00
2023-05-20T01:43:03.775Z,0.00
2023-05-20T01:44:03.769Z,0.00
2023-05-20T01:45:03.799Z,0.00
2023-05-20T01:46:03.754Z,0.00
2023-05-20T01:47:03.849Z,0.00
2023-05-20T01:48:03.764Z,0.00
2023-05-20T01:49:03.685Z,0.00
2023-05-20T01:50:03.696Z,0.00
2023-05-20T01:51:03.658Z,0.00
2023-05-20T01:52:03.657Z,0.00
2023-05-20T01:53:03.722Z,0.00
2023-05-20T01:54:03.685Z,0.00
2023-05-20T01:55:03.634Z,0.00
2023-05-20T01:56:03.593Z,0.00
2023-05-20T01:57:03.594Z,0.00
2023-05-20T01:58:03.576Z,0.00
2023-05-20T01:59:03.571Z,0.00
2023-05-20T02:00:03.575Z,0.00
2023-05-20T02:01:03.589Z,0.00
2023-05-20T02:02:03.528Z,0.00
2023-05-20T02:03:03.622Z,0.00
2023-05-20T02:04:03.485Z,0.00
2023-05-20T02:05:03.496Z,0.00
2023-05-20T02:06:03.571Z,0.00
2023-05-20T02:07:03.461Z,0.00
2023-05-20T02:08:03.544Z,0.00
2023-05-20T02:09:03.476Z,0.00
2023-05-20T02:10:03.417Z,0.00
2023-05-20T02:11:03.428Z,0.00
2023-05-20T02:12:03.389Z,0.00
2023-05-20T02:13:03.385Z,0.00
2023-05-20T02:14:03.550Z,0.00
2023-05-20T02:15:03.373Z,0.00
2023-05-20T02:16:03.503Z,0.00
2023-05-20T02:17:03.328Z,0.00
2023-05-20T02:18:03.353Z,0.00
2023-05-20T02:19:03.376Z,0.00
2023-05-20T02:20:03.289Z,0.00
2023-05-20T02:21:03.285Z,0.00
2023-05-20T02:22:03.304Z,0.00
2023-05-20T02:23:03.293Z,0.00
2023-05-20T02:24:03.265Z,0.00
2023-05-20T02:25:03.245Z,0.00
2023-05-20T02:26:03.240Z,0.00
2023-05-20T02:27:03.211Z,4.00
2023-05-20T02:28:03.251Z,4.00
2023-05-20T02:29:03.219Z,4.00
2023-05-20T02:30:03.165Z,4.00
2023-05-20T02:31:03.145Z,0.00
2023-05-20T02:32:03.146Z,0.00
2023-05-20T02:33:03.217Z,4.00
2023-05-20T02:34:03.174Z,4.00
2023-05-20T02:35:03.190Z,4.00
2023-05-20T02:36:03.102Z,4.00
2023-05-20T02:37:03.100Z,4.00
2023-05-20T02:38:03.128Z,4.00
2023-05-20T02:39:03.081Z,4.00
2023-05-20T02:40:03.102Z,4.00
2023-05-20T02:41:03.025Z,8.00
2023-05-20T02:42:03.015Z,8.00
2023-05-20T02:43:03.018Z,8.00
2023-05-20T02:44:03.006Z,12.00
2023-05-20T02:45:02.992Z,12.00
2023-05-20T02:46:02.993Z,12.00
2023-05-20T02:47:02.972Z,12.00
2023-05-20T02:48:02.980Z,16.00
2023-05-20T02:49:02.951Z,12.00
2023-05-20T02:50:02.914Z,16.00
2023-05-20T02:51:02.889Z,16.00
2023-05-20T02:52:02.874Z,16.00
2023-05-20T02:53:02.878Z,20.00
2023-05-20T02:54:02.876Z,20.00
2023-05-20T02:55:02.847Z,20.00
2023-05-20T02:56:02.879Z,24.00
2023-05-20T02:57:02.823Z,24.00
2023-05-20T02:58:02.802Z,24.00
2023-05-20T02:59:02.792Z,32.00
2023-05-20T03:00:02.798Z,36.00
2023-05-20T03:01:02.780Z,32.00
2023-05-20T03:02:02.756Z,36.00
2023-05-20T03:03:12.681Z,40.00
2023-05-20T03:04:02.774Z,44.00
2023-05-20T03:05:02.699Z,48.00
2023-05-20T03:06:02.724Z,52.00
2023-05-20T03:07:02.697Z,56.00
2023-05-20T03:08:02.672Z,60.00
2023-05-20T03:09:02.650Z,60.00
2023-05-20T03:10:02.645Z,64.00
2023-05-20T03:11:03.774Z,68.00
2023-05-20T03:12:02.628Z,72.00
2023-05-20T03:13:02.605Z,76.00
2023-05-20T03:14:02.613Z,84.00
2023-05-20T03:15:02.627Z,88.00
2023-05-20T03:16:02.625Z,92.00
2023-05-20T03:17:02.553Z,96.00
2023-05-20T03:18:02.640Z,100.00
2023-05-20T03:19:02.592Z,108.00
2023-05-20T03:20:09.521Z,112.00
2023-05-20T03:21:02.485Z,120.00
2023-05-20T03:22:02.488Z,124.00
2023-05-20T03:23:02.491Z,128.00
2023-05-20T03:24:02.477Z,132.00
2023-05-20T03:25:02.475Z,132.00
2023-05-20T03:26:02.412Z,136.00
2023-05-20T03:27:02.425Z,140.00
2023-05-20T03:28:02.398Z,148.00
2023-05-20T03:29:02.406Z,156.00
2023-05-20T03:30:02.400Z,164.00
2023-05-20T03:31:02.437Z,172.00
2023-05-20T03:32:02.342Z,180.00
2023-05-20T03:33:02.445Z,192.00
2023-05-20T03:34:02.345Z,204.00
2023-05-20T03:35:02.299Z,220.00
2023-05-20T03:36:02.308Z,232.00
2023-05-20T03:37:02.258Z,240.00
2023-05-20T03:38:02.272Z,244.00
2023-05-20T03:39:02.271Z,248.00
2023-05-20T03:40:02.256Z,256.00
2023-05-20T03:41:02.236Z,272.00
2023-05-20T03:42:02.226Z,284.00
2023-05-20T03:43:02.176Z,288.00
2023-05-20T03:44:02.181Z,284.00
2023-05-20T03:45:02.206Z,284.00
2023-05-20T03:46:02.153Z,288.00
2023-05-20T03:47:02.255Z,288.00
2023-05-20T03:48:02.145Z,292.00
2023-05-20T03:49:02.105Z,300.00
2023-05-20T03:50:02.117Z,304.00
2023-05-20T03:51:02.096Z,312.00
2023-05-20T03:52:02.094Z,328.00
2023-05-20T03:53:02.080Z,336.00
2023-05-20T03:54:02.052Z,344.00
2023-05-20T03:55:02.019Z,348.00
2023-05-20T03:56:02.011Z,352.00
2023-05-20T03:57:02.007Z,360.00
2023-05-20T03:58:02.000Z,376.00
2023-05-20T03:59:01.997Z,388.00
2023-05-20T04:00:01.978Z,404.00
2023-05-20T04:01:01.959Z,416.00
2023-05-20T04:02:01.980Z,428.00
2023-05-20T04:03:01.981Z,436.00
2023-05-20T04:04:01.928Z,456.00
2023-05-20T04:05:01.906Z,472.00
2023-05-20T04:06:01.877Z,476.00
2023-05-20T04:07:01.873Z,480.00
2023-05-20T04:08:01.870Z,488.00
2023-05-20T04:09:01.843Z,496.00
2023-05-20T04:10:01.859Z,496.00
2023-05-20T04:11:01.806Z,488.00
2023-05-20T04:12:01.818Z,488.00
2023-05-20T04:13:01.787Z,496.00
2023-05-20T04:14:01.797Z,496.00
2023-05-20T04:15:01.779Z,500.00
2023-05-20T04:16:01.770Z,508.00
2023-05-20T04:17:01.800Z,532.00
2023-05-20T04:18:01.789Z,560.00
2023-05-20T04:19:01.745Z,596.00
2023-05-20T04:20:01.687Z,648.00
2023-05-20T04:21:01.794Z,696.00
2023-05-20T04:22:01.677Z,728.00
2023-05-20T04:23:01.667Z,748.00
2023-05-20T04:24:01.646Z,772.00
2023-05-20T04:25:01.630Z,780.00
2023-05-20T04:26:01.634Z,780.00
2023-05-20T04:27:01.595Z,768.00
2023-05-20T04:28:01.603Z,764.00
2023-05-20T04:29:01.569Z,764.00
2023-05-20T04:30:01.577Z,776.00
2023-05-20T04:31:01.549Z,808.00
2023-05-20T04:32:01.652Z,848.00
2023-05-20T04:33:01.568Z,884.00
2023-05-20T04:34:01.516Z,908.00
2023-05-20T04:35:01.518Z,924.00
2023-05-20T04:36:01.561Z,936.00
2023-05-20T04:37:01.511Z,956.00
2023-05-20T04:38:01.462Z,996.00
2023-05-20T04:39:01.435Z,1036.00
2023-05-20T04:40:01.450Z,1076.00
2023-05-20T04:41:01.413Z,1112.00
2023-05-20T04:42:01.412Z,1136.00
2023-05-20T04:43:01.405Z,1136.00
2023-05-20T04:44:01.384Z,1128.00
2023-05-20T04:45:01.374Z,1128.00
2023-05-20T04:46:01.390Z,1136.00
2023-05-20T04:47:01.359Z,1140.00
2023-05-20T04:48:01.367Z,1136.00
2023-05-20T04:49:01.306Z,1100.00
2023-05-20T04:50:01.312Z,1044.00
2023-05-20T04:51:01.322Z,972.00
2023-05-20T04:52:01.305Z,928.00
2023-05-20T04:53:01.333Z,904.00
2023-05-20T04:54:01.261Z,892.00
2023-05-20T04:55:01.238Z,884.00
2023-05-20T04:56:01.222Z,876.00
2023-05-20T04:57:01.200Z,872.00
2023-05-20T04:58:01.223Z,876.00
2023-05-20T04:59:01.252Z,872.00
2023-05-20T05:00:01.204Z,864.00
2023-05-20T05:01:01.192Z,848.00
2023-05-20T05:02:01.221Z,840.00
2023-05-20T05:03:01.192Z,828.00
2023-05-20T05:04:01.149Z,816.00
2023-05-20T05:05:01.149Z,840.00
2023-05-20T05:06:01.087Z,924.00
2023-05-20T05:07:01.078Z,1060.00
2023-05-20T05:08:01.100Z,1164.00
2023-05-20T05:09:01.061Z,1232.00
2023-05-20T05:10:01.044Z,1288.00
2023-05-20T05:11:01.049Z,1340.00
2023-05-20T05:12:01.029Z,1380.00
2023-05-20T05:13:00.994Z,1436.00
2023-05-20T05:14:00.993Z,1468.00
2023-05-20T05:15:00.968Z,1444.00
2023-05-20T05:16:01.064Z,1392.00
2023-05-20T05:17:00.956Z,1356.00
2023-05-20T05:18:00.978Z,1344.00
2023-05-20T05:19:00.934Z,1372.00
2023-05-20T05:20:00.935Z,1420.00
2023-05-20T05:21:00.910Z,1484.00
2023-05-20T05:22:00.905Z,1544.00
2023-05-20T05:23:00.882Z,1612.00
2023-05-20T05:24:00.859Z,1668.00
2023-05-20T05:25:00.842Z,1788.00
2023-05-20T05:26:00.841Z,1948.00
2023-05-20T05:27:00.819Z,2068.00
2023-05-20T05:28:00.828Z,2096.00
2023-05-20T05:29:00.800Z,1992.00
2023-05-20T05:30:00.816Z,1852.00
2023-05-20T05:31:00.795Z,1824.00
2023-05-20T05:32:00.780Z,1868.00
2023-05-20T05:33:01.011Z,1920.00
2023-05-20T05:34:00.740Z,2044.00
2023-05-20T05:35:00.733Z,2160.00
2023-05-20T05:36:00.701Z,2220.00
2023-05-20T05:37:00.699Z,2284.00
2023-05-20T05:38:00.788Z,2268.00
2023-05-20T05:39:00.679Z,2252.00
2023-05-20T05:40:00.660Z,2232.00
2023-05-20T05:41:00.658Z,2208.00
2023-05-20T05:42:00.619Z,2196.00
2023-05-20T05:43:00.626Z,2200.00
2023-05-20T05:44:00.624Z,2188.00
2023-05-20T05:45:00.572Z,2132.00
2023-05-20T05:46:00.585Z,2076.00
2023-05-20T05:47:00.625Z,2040.00
2023-05-20T05:48:00.579Z,2020.00
2023-05-20T05:49:00.527Z,2032.00
2023-05-20T05:50:00.616Z,2016.00
2023-05-20T05:51:00.519Z,1988.00
2023-05-20T05:52:00.527Z,1936.00
2023-05-20T05:53:00.469Z,1908.00
2023-05-20T05:54:00.480Z,1900.00
2023-05-20T05:55:00.465Z,1876.00
2023-05-20T05:56:00.439Z,1896.00
2023-05-20T05:57:00.437Z,1964.00
2023-05-20T05:58:00.408Z,2064.00
2023-05-20T05:59:00.419Z,2264.00
2023-05-20T06:00:00.386Z,2424.00
2023-05-20T06:01:00.440Z,2484.00
2023-05-20T06:02:00.395Z,2516.00
2023-05-20T06:03:00.473Z,2508.00
2023-05-20T06:04:00.425Z,2528.00
2023-05-20T06:05:00.340Z,2572.00
2023-05-20T06:06:00.327Z,2652.00
2023-05-20T06:07:00.290Z,2736.00
2023-05-20T06:08:00.437Z,2660.00
2023-05-20T06:09:00.275Z,2476.00
2023-05-20T06:10:00.292Z,2332.00
2023-05-20T06:11:00.248Z,2308.00
2023-05-20T06:12:00.247Z,2428.00
2023-05-20T06:13:00.363Z,2588.00
2023-05-20T06:14:00.359Z,2684.00
2023-05-20T06:15:00.179Z,2692.00
2023-05-20T06:16:00.201Z,2556.00
2023-05-20T06:17:00.349Z,2452.00
2023-05-20T06:18:00.265Z,2504.00
2023-05-20T06:19:03.272Z,2516.00
2023-05-20T06:20:00.157Z,2480.00
2023-05-20T06:21:00.131Z,2552.00
2023-05-20T06:22:00.138Z,2712.00
2023-05-20T06:23:00.128Z,2852.00
2023-05-20T06:24:00.071Z,3004.00
2023-05-20T06:25:00.084Z,3076.00
2023-05-20T06:26:00.086Z,2932.00
2023-05-20T06:27:00.056Z,2824.00
2023-05-20T06:28:00.120Z,2888.00
2023-05-20T06:29:00.043Z,3004.00
2023-05-20T06:30:00.007Z,2948.00
2023-05-20T06:31:00.048Z,2876.00
2023-05-20T06:31:59.974Z,2948.00
2023-05-20T06:33:00.079Z,3100.00
2023-05-20T06:33:59.943Z,3248.00
2023-05-20T06:34:59.945Z,3224.00
2023-05-20T06:35:59.924Z,3128.00
2023-05-20T06:36:59.897Z,3084.00
2023-05-20T06:37:59.943Z,3160.00
2023-05-20T06:38:59.884Z,3268.00
2023-05-20T06:39:59.866Z,3340.00
2023-05-20T06:40:59.868Z,3456.00
2023-05-20T06:41:59.836Z,3528.00
2023-05-20T06:42:59.839Z,3532.00
2023-05-20T06:43:59.807Z,3584.00
2023-05-20T06:44:59.810Z,3608.00
2023-05-20T06:45:59.824Z,3636.00
2023-05-20T06:46:59.775Z,3808.00
2023-05-20T06:47:59.788Z,3956.00
2023-05-20T06:48:59.796Z,4052.00
2023-05-20T06:49:59.739Z,4348.00
2023-05-20T06:50:59.716Z,4632.00
2023-05-20T06:51:59.717Z,4692.00
2023-05-20T06:52:59.688Z,4484.00
2023-05-20T06:53:59.680Z,4376.00
2023-05-20T06:54:59.675Z,4452.00
2023-05-20T06:55:59.647Z,4640.00
2023-05-20T06:56:59.638Z,4796.00
2023-05-20T06:57:59.660Z,4760.00
2023-05-20T06:58:59.624Z,4660.00
2023-05-20T06:59:59.620Z,4592.00
2023-05-20T07:00:59.597Z,4496.00
2023-05-20T07:01:59.627Z,4408.00
2023-05-20T07:02:59.627Z,4428.00
2023-05-20T07:03:59.616Z,4636.00
2023-05-20T07:04:59.554Z,5008.00
2023-05-20T07:05:59.528Z,5352.00
2023-05-20T07:06:59.521Z,5420.00
2023-05-20T07:07:59.486Z,5164.00
2023-05-20T07:08:59.477Z,5292.00
2023-05-20T07:09:59.500Z,5496.00
2023-05-20T07:10:59.473Z,5540.00
2023-05-20T07:11:59.472Z,5456.00
2023-05-20T07:12:59.439Z,5420.00
2023-05-20T07:13:59.431Z,5432.00
2023-05-20T07:14:59.412Z,5412.00
2023-05-20T07:15:59.445Z,5344.00
2023-05-20T07:16:59.389Z,5280.00
2023-05-20T07:17:59.575Z,5096.00
2023-05-20T07:18:59.417Z,5212.00
2023-05-20T07:19:59.330Z,5456.00
2023-05-20T07:20:59.329Z,5648.00
2023-05-20T07:21:59.328Z,5520.00
2023-05-20T07:22:59.299Z,5600.00
2023-05-20T07:23:59.276Z,5908.00
2023-05-20T07:24:59.285Z,6124.00
2023-05-20T07:25:59.275Z,6120.00
2023-05-20T07:26:59.246Z,6048.00
2023-05-20T07:27:59.229Z,6112.00
2023-05-20T07:28:59.239Z,5984.00
2023-05-20T07:29:59.233Z,5420.00
2023-05-20T07:30:59.210Z,4900.00
2023-05-20T07:31:59.325Z,4764.00
2023-05-20T07:32:59.255Z,4896.00
2023-05-20T07:33:59.151Z,5124.00
2023-05-20T07:34:59.181Z,5416.00
2023-05-20T07:35:59.131Z,5628.00
2023-05-20T07:36:59.122Z,5756.00
2023-05-20T07:37:59.112Z,5848.00
2023-05-20T07:39:03.608Z,6116.00
2023-05-20T07:40:00.138Z,6020.00
2023-05-20T07:40:59.080Z,5832.00
2023-05-20T07:41:59.058Z,5852.00
2023-05-20T07:42:59.088Z,5904.00
2023-05-20T07:43:59.038Z,5968.00
2023-05-20T07:44:59.048Z,6248.00
2023-05-20T07:45:59.047Z,6676.00
2023-05-20T07:46:58.996Z,6880.00
2023-05-20T07:47:59.043Z,6852.00
2023-05-20T07:48:58.982Z,6784.00
2023-05-20T07:49:58.948Z,6984.00
2023-05-20T07:50:58.945Z,7296.00
2023-05-20T07:52:00.892Z,7388.00
2023-05-20T07:52:58.929Z,7264.00
2023-05-20T07:53:58.899Z,7208.00
2023-05-20T07:54:58.883Z,7316.00
2023-05-20T07:55:58.887Z,7204.00
2023-05-20T07:56:58.855Z,7196.00
2023-05-20T07:57:58.842Z,7288.00
2023-05-20T07:58:58.864Z,7240.00
2023-05-20T07:59:58.817Z,7372.00
2023-05-20T08:00:58.802Z,7704.00
2023-05-20T08:01:58.823Z,7964.00
2023-05-20T08:02:58.918Z,8228.00
2023-05-20T08:03:58.872Z,8540.00
2023-05-20T08:04:58.745Z,8788.00
2023-05-20T08:05:58.723Z,9008.00
2023-05-20T08:06:58.724Z,9120.00
2023-05-20T08:07:58.705Z,9244.00
2023-05-20T08:08:58.748Z,9208.00
2023-05-20T08:09:58.694Z,9080.00
2023-05-20T08:10:58.680Z,9120.00
2023-05-20T08:11:58.672Z,9080.00
2023-05-20T08:12:58.648Z,8872.00
2023-05-20T08:13:58.630Z,8620.00
2023-05-20T08:14:58.639Z,8612.00
2023-05-20T08:15:58.615Z,8972.00
2023-05-20T08:16:58.663Z,9200.00
2023-05-20T08:17:58.680Z,9264.00
2023-05-20T08:18:58.645Z,9220.00
2023-05-20T08:19:58.550Z,9208.00
2023-05-20T08:20:58.544Z,8708.00
2023-05-20T08:21:58.551Z,8312.00
2023-05-20T08:22:58.525Z,8028.00
2023-05-20T08:23:58.505Z,7800.00
2023-05-20T08:24:58.516Z,7608.00
2023-05-20T08:25:58.466Z,7608.00
2023-05-20T08:26:58.454Z,7164.00
2023-05-20T08:27:58.614Z,7412.00
2023-05-20T08:28:58.464Z,8176.00
2023-05-20T08:30:00.599Z,9500.00
2023-05-20T08:30:58.420Z,9204.00
2023-05-20T08:31:58.401Z,9492.00
2023-05-20T08:32:58.439Z,9524.00
2023-05-20T08:33:58.379Z,8664.00
2023-05-20T08:34:58.349Z,8436.00
2023-05-20T08:35:58.336Z,8484.00
2023-05-20T08:36:58.315Z,8004.00
2023-05-20T08:37:58.454Z,7840.00
2023-05-20T08:38:58.372Z,7704.00
2023-05-20T08:39:58.278Z,7668.00
2023-05-20T08:40:58.282Z,8432.00
2023-05-20T08:41:58.255Z,8240.00
2023-05-20T08:42:58.248Z,8036.00
2023-05-20T08:43:58.239Z,7724.00
2023-05-20T08:44:58.231Z,6816.00
2023-05-20T08:45:58.263Z,7240.00
2023-05-20T08:46:58.285Z,7184.00
2023-05-20T08:47:58.217Z,7140.00
2023-05-20T08:48:58.191Z,7800.00
2023-05-20T08:49:58.199Z,8808.00
2023-05-20T08:50:58.168Z,8840.00
2023-05-20T08:51:58.145Z,9172.00
2023-05-20T08:52:58.111Z,9804.00
2023-05-20T08:53:58.113Z,10284.00
2023-05-20T08:54:58.097Z,9856.00
2023-05-20T08:56:00.872Z,9752.00
2023-05-20T08:56:58.089Z,9260.00
2023-05-20T08:57:58.234Z,9264.00
2023-05-20T08:58:58.061Z,8076.00
2023-05-20T08:59:58.033Z,8236.00
2023-05-20T09:00:58.025Z,8192.00
2023-05-20T09:01:58.061Z,8800.00
2023-05-20T09:03:00.201Z,9240.00
2023-05-20T09:03:57.968Z,8816.00
2023-05-20T09:04:58.005Z,8872.00
2023-05-20T09:05:57.936Z,9064.00
2023-05-20T09:06:57.931Z,9708.00
2023-05-20T09:07:57.920Z,9840.00
2023-05-20T09:08:57.908Z,8900.00
2023-05-20T09:09:57.903Z,8544.00
2023-05-20T09:10:57.880Z,7844.00
2023-05-20T09:11:57.899Z,6932.00
2023-05-20T09:12:57.950Z,7264.00
2023-05-20T09:13:57.872Z,7556.00
2023-05-20T09:14:57.842Z,7884.00
2023-05-20T09:15:57.832Z,8004.00
2023-05-20T09:16:57.823Z,7996.00
2023-05-20T09:17:57.816Z,7900.00
2023-05-20T09:18:57.914Z,7360.00
2023-05-20T09:20:04.833Z,7896.00
2023-05-20T09:20:57.738Z,8008.00
2023-05-20T09:21:57.736Z,8056.00
2023-05-20T09:22:57.813Z,7876.00
2023-05-20T09:23:57.697Z,7412.00
2023-05-20T09:24:57.718Z,7456.00
2023-05-20T09:25:57.723Z,6808.00
2023-05-20T09:26:57.682Z,6360.00
2023-05-20T09:27:57.697Z,6536.00
2023-05-20T09:28:57.647Z,6668.00
2023-05-20T09:29:57.639Z,6404.00
2023-05-20T09:30:57.746Z,6368.00
2023-05-20T09:31:57.652Z,5744.00
2023-05-20T09:32:57.614Z,5348.00
2023-05-20T09:33:57.581Z,5652.00
2023-05-20T09:34:57.579Z,5604.00
2023-05-20T09:35:57.552Z,5672.00
2023-05-20T09:36:57.532Z,5480.00
2023-05-20T09:37:57.529Z,5584.00
2023-05-20T09:38:57.518Z,6248.00
2023-05-20T09:39:57.513Z,6572.00
2023-05-20T09:40:57.496Z,6584.00
2023-05-20T09:41:57.460Z,6876.00
2023-05-20T09:42:57.511Z,6888.00
2023-05-20T09:43:57.437Z,6724.00
2023-05-20T09:44:57.420Z,7012.00
2023-05-20T09:45:57.474Z,7044.00
2023-05-20T09:46:57.394Z,6852.00
2023-05-20T09:47:57.397Z,6824.00
2023-05-20T09:48:57.391Z,6912.00
2023-05-20T09:49:57.351Z,7520.00
2023-05-20T09:50:57.413Z,6960.00
2023-05-20T09:51:57.326Z,6616.00
2023-05-20T09:52:57.339Z,6420.00
2023-05-20T09:53:57.315Z,6480.00
2023-05-20T09:54:57.306Z,6288.00
2023-05-20T09:55:57.363Z,6216.00
2023-05-20T09:56:57.262Z,6028.00
2023-05-20T09:57:57.254Z,5920.00
2023-05-20T09:58:57.266Z,6304.00
2023-05-20T09:59:57.212Z,6788.00
2023-05-20T10:00:58.371Z,6668.00
2023-05-20T10:01:57.472Z,6384.00
2023-05-20T10:03:04.269Z,6440.00
2023-05-20T10:04:04.365Z,6724.00
2023-05-20T10:04:57.185Z,7476.00
2023-05-20T10:05:57.184Z,7788.00
2023-05-20T10:06:57.161Z,7644.00
2023-05-20T10:07:57.139Z,7428.00
2023-05-20T10:08:57.507Z,7932.00
2023-05-20T10:09:57.136Z,8360.00
2023-05-20T10:10:57.116Z,8320.00
2023-05-20T10:11:57.085Z,8084.00
2023-05-20T10:12:57.084Z,7972.00
2023-05-20T10:13:57.052Z,8292.00
2023-05-20T10:14:57.053Z,8808.00
2023-05-20T10:15:57.105Z,8828.00
2023-05-20T10:16:57.024Z,9984.00
2023-05-20T10:17:57.031Z,11072.00
2023-05-20T10:18:57.058Z,11628.00
2023-05-20T10:19:56.971Z,10008.00
2023-05-20T10:20:56.971Z,9804.00
2023-05-20T10:21:56.953Z,9212.00
2023-05-20T10:22:56.975Z,8308.00
2023-05-20T10:23:56.951Z,7464.00
2023-05-20T10:24:56.912Z,7128.00
2023-05-20T10:25:56.902Z,7180.00
2023-05-20T10:26:56.883Z,7264.00
2023-05-20T10:27:56.890Z,7316.00
2023-05-20T10:28:56.863Z,7908.00
2023-05-20T10:29:56.878Z,8740.00
2023-05-20T10:30:56.889Z,8984.00
2023-05-20T10:31:56.901Z,9432.00
2023-05-20T10:32:57.214Z,9332.00
2023-05-20T10:33:56.798Z,8336.00
2023-05-20T10:34:56.808Z,7004.00
2023-05-20T10:35:56.793Z,6596.00
2023-05-20T10:36:56.775Z,7316.00
2023-05-20T10:37:56.752Z,8756.00
2023-05-20T10:38:56.725Z,10216.00
2023-05-20T10:39:56.727Z,10048.00
2023-05-20T10:40:56.721Z,8932.00
2023-05-20T10:41:56.716Z,8360.00
2023-05-20T10:42:56.688Z,8384.00
2023-05-20T10:43:56.655Z,8264.00
2023-05-20T10:44:56.657Z,8704.00
2023-05-20T10:45:56.664Z,9160.00
2023-05-20T10:47:56.720Z,10208.00
2023-05-20T10:48:56.855Z,9332.00
2023-05-20T10:49:56.603Z,8664.00
2023-05-20T10:50:56.616Z,8344.00
2023-05-20T10:51:56.679Z,8032.00
2023-05-20T10:52:56.584Z,7896.00
2023-05-20T10:53:56.537Z,7180.00
2023-05-20T10:54:56.590Z,6440.00
2023-05-20T10:55:56.567Z,6556.00
2023-05-20T10:56:56.483Z,7264.00
2023-05-20T10:57:56.498Z,7500.00
2023-05-20T10:58:56.490Z,7716.00
2023-05-20T10:59:56.477Z,8268.00
2023-05-20T11:00:56.493Z,8540.00
2023-05-20T11:01:56.445Z,8820.00
2023-05-20T11:02:56.495Z,9004.00
2023-05-20T11:03:56.502Z,8976.00
2023-05-20T11:04:56.408Z,9076.00
2023-05-20T11:05:56.375Z,8580.00
2023-05-20T11:06:56.378Z,8112.00
2023-05-20T11:07:56.350Z,8320.00
2023-05-20T11:08:56.357Z,8268.00
2023-05-20T11:09:56.344Z,8168.00
2023-05-20T11:10:56.301Z,8432.00
2023-05-20T11:11:56.316Z,9352.00
2023-05-20T11:12:56.318Z,10112.00
2023-05-20T11:13:56.271Z,10532.00
2023-05-20T11:14:56.309Z,10632.00
2023-05-20T11:15:56.245Z,10884.00
2023-05-20T11:16:56.330Z,10920.00
2023-05-20T11:17:56.263Z,11276.00
2023-05-20T11:18:56.234Z,12604.00
2023-05-20T11:19:56.309Z,12484.00
2023-05-20T11:20:56.200Z,11544.00
2023-05-20T11:21:56.193Z,12216.00
2023-05-20T11:22:56.144Z,13068.00
2023-05-20T11:23:56.151Z,13044.00
2023-05-20T11:24:56.125Z,13136.00
2023-05-20T11:25:56.139Z,12432.00
2023-05-20T11:26:56.186Z,11704.00
2023-05-20T11:27:56.094Z,11460.00
2023-05-20T11:28:56.102Z,11576.00
2023-05-20T11:29:56.078Z,10840.00
2023-05-20T11:30:56.076Z,10936.00
2023-05-20T11:31:56.087Z,11612.00
2023-05-20T11:32:56.135Z,11676.00
2023-05-20T11:33:55.998Z,11908.00
2023-05-20T11:34:56.014Z,11924.00
2023-05-20T11:35:56.014Z,11900.00
2023-05-20T11:36:55.984Z,11792.00
2023-05-20T11:37:55.984Z,11140.00
2023-05-20T11:38:56.005Z,9848.00
2023-05-20T11:39:55.934Z,9452.00
2023-05-20T11:40:56.275Z,10856.00
2023-05-20T11:41:55.928Z,12092.00
2023-05-20T11:42:55.897Z,12648.00
2023-05-20T11:43:55.876Z,12460.00
2023-05-20T11:44:55.875Z,11772.00
2023-05-20T11:45:55.912Z,11036.00
2023-05-20T11:46:55.823Z,10808.00
2023-05-20T11:47:55.832Z,11144.00
2023-05-20T11:48:55.857Z,12704.00
2023-05-20T11:49:55.817Z,10864.00
2023-05-20T11:50:55.823Z,11176.00
2023-05-20T11:51:55.783Z,11816.00
2023-05-20T11:52:55.771Z,12120.00
2023-05-20T11:53:55.746Z,11944.00
2023-05-20T11:54:55.782Z,11568.00
2023-05-20T11:55:55.754Z,12244.00
2023-05-20T11:56:55.708Z,11244.00
2023-05-20T11:57:55.705Z,10316.00
2023-05-20T11:58:55.677Z,10296.00
2023-05-20T11:59:55.768Z,10048.00
2023-05-20T12:01:05.232Z,9820.00
2023-05-20T12:01:56.661Z,10524.00
2023-05-20T12:02:55.771Z,11284.00
2023-05-20T12:03:55.799Z,11084.00
2023-05-20T12:04:55.739Z,10904.00
2023-05-20T12:05:55.606Z,10944.00
2023-05-20T12:06:55.602Z,10776.00
2023-05-20T12:07:56.509Z,10344.00
2023-05-20T12:08:55.595Z,10492.00
2023-05-20T12:09:55.567Z,10544.00
2023-05-20T12:10:55.564Z,9756.00
2023-05-20T12:11:55.544Z,9452.00
2023-05-20T12:12:55.503Z,9652.00
2023-05-20T12:13:57.211Z,9784.00
2023-05-20T12:14:57.349Z,10560.00
2023-05-20T12:15:57.073Z,11580.00
2023-05-20T12:16:57.244Z,12008.00
2023-05-20T12:17:57.500Z,13020.00
2023-05-20T12:18:57.131Z,14304.00
2023-05-20T12:19:57.337Z,12592.00
2023-05-20T12:20:56.947Z,11892.00
2023-05-20T12:21:57.144Z,10652.00
2023-05-20T12:22:57.353Z,10492.00
2023-05-20T12:23:55.353Z,10208.00